Time;durP1;ratioP1;P1;durP2;ratioP2;P2;SDS_P1;SDS_P2;PMS_P1;PMS_P2;Temp;Humidity;BMP_temperature;BMP_pressure;BME280_temperature;BME280_humidity;BME280_pressure;Samples;Min_cycle;Max_cycle;Signal;HPM_P1;HPM_P2
2022/04/14 00:01:48;;;;;;;9.07;3.55;;;;;;;2.86;100.00;91202.84;5034825;28;20498;-66
2022/04/14 00:04:13;;;;;;;4.18;3.10;;;;;;;2.84;100.00;91193.63;5017601;28;20048;-66
2022/04/14 00:06:49;;;;;;;4.78;3.33;;;;;;;2.90;100.00;91196.03;5034629;28;20500;-68
2022/04/14 00:09:14;;;;;;;4.70;2.78;;;;;;;2.96;100.00;91197.63;5034577;28;20069;-69
2022/04/14 00:11:40;;;;;;;4.40;3.08;;;;;;;2.76;100.00;91167.84;5035206;28;20052;-68
2022/04/14 00:14:08;;;;;;;6.00;3.20;;;;;;;2.92;100.00;91195.78;5035128;28;20380;-68
2022/04/14 00:16:33;;;;;;;4.75;3.42;;;;;;;2.85;100.00;91185.50;5016442;28;20026;-68
2022/04/14 00:18:59;;;;;;;7.07;3.33;;;;;;;2.91;100.00;91194.19;5034277;28;20040;-66
2022/04/14 00:21:24;;;;;;;5.47;3.35;;;;;;;2.93;100.00;91197.38;5034730;28;20406;-66
2022/04/14 00:23:50;;;;;;;5.40;3.35;;;;;;;2.98;100.00;91192.13;5034644;28;20116;-66
2022/04/14 00:26:15;;;;;;;4.97;3.33;;;;;;;3.00;100.00;91185.59;5034447;28;20114;-66
2022/04/14 00:28:41;;;;;;;3.88;3.05;;;;;;;2.96;100.00;91191.59;5034327;28;20025;-66
2022/04/14 00:31:06;;;;;;;4.47;3.20;;;;;;;2.98;100.00;91192.13;5033931;28;20022;-66
2022/04/14 00:33:32;;;;;;;7.07;3.08;;;;;;;2.96;100.00;91188.97;5034292;28;20038;-66
2022/04/14 00:35:58;;;;;;;8.30;3.42;;;;;;;2.90;100.00;91180.28;5034247;28;20037;-66
2022/04/14 00:38:24;;;;;;;5.65;3.58;;;;;;;2.92;100.00;91187.91;5034388;28;20037;-68
2022/04/14 00:40:52;;;;;;;5.95;3.00;;;;;;;2.89;100.00;91188.41;5034416;28;20048;-66
2022/04/14 00:43:27;;;;;;;5.88;3.65;;;;;;;2.88;100.00;91186.84;5033841;28;20029;-66
2022/04/14 00:45:53;;;;;;;5.50;3.00;;;;;;;2.89;100.00;91189.22;5033481;28;20435;-66
2022/04/14 00:48:18;;;;;;;6.07;3.60;;;;;;;2.79;100.00;91178.63;5034148;28;20034;-67
2022/04/14 00:50:44;;;;;;;7.63;3.90;;;;;;;2.54;100.00;91179.31;5034218;28;20072;-67
2022/04/14 00:53:10;;;;;;;8.43;4.13;;;;;;;2.39;100.00;91179.22;5033852;28;20152;-67
2022/04/14 00:55:35;;;;;;;4.85;4.00;;;;;;;2.20;100.00;91191.13;5033883;28;20392;-66
2022/04/14 00:58:00;;;;;;;4.53;3.67;;;;;;;1.94;100.00;91183.06;5033698;28;20036;-67
2022/04/14 01:00:26;;;;;;;5.97;3.65;;;;;;;1.84;100.00;91190.84;5033711;28;20029;-67
2022/04/14 01:02:54;;;;;;;8.48;4.15;;;;;;;1.79;100.00;91190.81;5033667;28;20040;-67
2022/04/14 01:05:20;;;;;;;5.60;4.00;;;;;;;1.65;100.00;91194.88;5033603;28;20108;-66
2022/04/14 01:07:47;;;;;;;6.97;4.75;;;;;;;1.52;100.00;91190.81;5033511;28;20067;-66
2022/04/14 01:10:13;;;;;;;5.18;3.63;;;;;;;1.44;100.00;91199.13;5033184;28;20630;-66
2022/04/14 01:12:39;;;;;;;8.60;4.53;;;;;;;1.47;100.00;91204.66;5033670;28;20104;-66
2022/04/14 01:15:10;;;;;;;7.18;4.28;;;;;;;1.45;100.00;91204.13;5033377;28;20033;-66
2022/04/14 01:17:36;;;;;;;6.22;3.70;;;;;;;1.45;100.00;91192.84;5033258;28;20052;-66
2022/04/14 01:20:04;;;;;;;6.35;3.80;;;;;;;1.50;100.00;91201.53;5033665;28;20451;-66
2022/04/14 01:22:35;;;;;;;6.50;3.65;;;;;;;1.49;100.00;91201.78;5033539;28;20021;-66
2022/04/14 01:25:02;;;;;;;5.45;3.25;;;;;;;1.50;100.00;91203.38;5033260;28;20029;-66
2022/04/14 01:27:28;;;;;;;7.88;3.28;;;;;;;1.53;100.00;91204.72;5033435;28;20034;-66
2022/04/14 01:29:54;;;;;;;4.70;2.95;;;;;;;1.54;100.00;91201.03;5033193;28;20044;-66
2022/04/14 01:32:23;;;;;;;4.68;3.00;;;;;;;1.62;100.00;91200.63;5033132;28;20018;-66
2022/04/14 01:34:49;;;;;;;16.35;6.45;;;;;;;1.77;100.00;91193.69;5033086;28;20045;-66
2022/04/14 01:37:15;;;;;;;7.28;3.70;;;;;;;1.93;100.00;91196.44;5032747;28;20507;-66
2022/04/14 01:39:41;;;;;;;10.98;4.78;;;;;;;2.00;100.00;91197.81;5033021;28;20028;-66
2022/04/14 01:42:07;;;;;;;3.13;2.67;;;;;;;1.94;100.00;91193.56;5033369;28;20041;-66
2022/04/14 01:44:33;;;;;;;4.30;3.10;;;;;;;1.84;100.00;91180.34;5166906;22;20061;-63
2022/04/14 01:46:58;;;;;;;3.22;2.38;;;;;;;1.83;100.00;91191.88;5012944;28;20030;-64
2022/04/14 01:49:23;;;;;;;3.80;2.58;;;;;;;1.82;100.00;91190.31;5012851;28;20534;-64
2022/04/14 01:51:49;;;;;;;4.00;2.40;;;;;;;1.93;100.00;91188.56;5013287;28;20036;-64
2022/04/14 01:54:15;;;;;;;3.53;2.55;;;;;;;1.96;100.00;91188.06;4995112;28;20029;-63
2022/04/14 01:56:41;;;;;;;5.13;2.78;;;;;;;2.08;100.00;91192.09;5012838;28;20095;-64
2022/04/14 01:59:07;;;;;;;4.25;2.42;;;;;;;2.11;100.00;91190.81;5012973;28;20057;-64
2022/04/14 02:01:33;;;;;;;8.00;3.58;;;;;;;2.09;100.00;91196.31;5012675;28;20030;-63
2022/04/14 02:03:58;;;;;;;8.27;3.92;;;;;;;2.13;100.00;91191.34;5012820;28;20060;-64
2022/04/14 02:06:24;;;;;;;10.43;4.40;;;;;;;2.06;100.00;91196.03;4994953;28;20060;-64
2022/04/14 02:08:50;;;;;;;11.82;3.80;;;;;;;2.02;100.00;91195.72;5012816;28;20034;-65
2022/04/14 02:11:16;;;;;;;17.40;6.00;;;;;;;2.02;100.00;91194.94;5012761;28;20033;-64
2022/04/14 02:13:42;;;;;;;7.18;3.25;;;;;;;1.98;100.00;91188.59;5012690;28;20088;-64
2022/04/14 02:16:08;;;;;;;2.75;2.38;;;;;;;1.75;100.00;91193.16;5012479;28;20480;-64
2022/04/14 02:18:34;;;;;;;3.67;2.30;;;;;;;1.60;100.00;91193.00;5012979;28;20025;-63
2022/04/14 02:20:59;;;;;;;4.03;2.30;;;;;;;1.42;100.00;91196.75;5012395;28;20030;-63
2022/04/14 02:23:25;;;;;;;5.82;2.80;;;;;;;1.29;100.00;91184.03;5012438;28;20475;-63
2022/04/14 02:25:50;;;;;;;10.80;4.90;;;;;;;1.49;100.00;91196.56;4994793;28;20030;-64
2022/04/14 02:28:16;;;;;;;10.43;4.63;;;;;;;1.64;100.00;91198.53;5012629;28;20024;-64
2022/04/14 02:30:42;;;;;;;12.18;4.07;;;;;;;1.60;100.00;91198.25;5012786;28;20022;-63
2022/04/14 02:33:07;;;;;;;13.07;4.07;;;;;;;1.64;100.00;91194.09;5012637;28;20033;-63
2022/04/14 02:35:36;;;;;;;9.23;3.45;;;;;;;1.62;100.00;91182.25;5012525;28;20025;-63
2022/04/14 02:38:01;;;;;;;9.65;3.80;;;;;;;1.59;100.00;91203.75;4994538;28;20026;-63
2022/04/14 02:40:27;;;;;;;10.10;4.13;;;;;;;1.65;100.00;91194.88;5012505;28;20087;-64
2022/04/14 02:42:54;;;;;;;8.90;4.07;;;;;;;1.67;100.00;91203.28;5012141;28;20491;-65
2022/04/14 02:45:20;;;;;;;4.57;3.13;;;;;;;1.64;100.00;91206.41;5012384;28;20472;-64
2022/04/14 02:47:46;;;;;;;6.40;2.97;;;;;;;1.56;100.00;91205.00;5012144;28;20567;-64
2022/04/14 02:50:11;;;;;;;11.20;4.20;;;;;;;1.54;100.00;91203.66;5012091;28;20117;-64
2022/04/14 02:52:37;;;;;;;12.75;3.95;;;;;;;1.44;100.00;91193.88;5012044;28;20022;-64
2022/04/14 02:55:03;;;;;;;8.90;4.85;;;;;;;1.38;100.00;91195.66;5011909;28;20032;-64
2022/04/14 02:57:30;;;;;;;9.23;4.20;;;;;;;1.39;100.00;91191.19;4994457;28;20029;-64
2022/04/14 02:59:56;;;;;;;9.27;4.50;;;;;;;1.42;100.00;91194.13;4994434;28;20046;-64
2022/04/14 03:02:22;;;;;;;4.97;3.50;;;;;;;1.46;100.00;91204.91;5012544;28;20091;-64
2022/04/14 03:04:47;;;;;;;8.40;3.60;;;;;;;1.49;100.00;91205.22;5011873;28;20456;-64
2022/04/14 03:07:13;;;;;;;8.38;4.00;;;;;;;1.52;100.00;91205.75;5012987;28;20057;-64
2022/04/14 03:09:38;;;;;;;7.93;4.18;;;;;;;1.43;100.00;91198.34;5015846;28;20034;-64
2022/04/14 03:12:04;;;;;;;8.25;3.50;;;;;;;1.41;100.00;91210.09;5015956;28;20061;-64
2022/04/14 03:14:29;;;;;;;8.18;3.65;;;;;;;1.37;100.00;91209.78;5015765;28;20030;-64
2022/04/14 03:16:57;;;;;;;9.25;3.22;;;;;;;1.22;100.00;91212.25;5015647;28;20456;-64
2022/04/14 03:19:22;;;;;;;7.53;3.25;;;;;;;1.05;100.00;91214.16;5015930;28;20022;-64
2022/04/14 03:21:48;;;;;;;11.40;3.40;;;;;;;1.03;100.00;91209.16;5016134;28;20018;-64
2022/04/14 03:24:13;;;;;;;13.88;3.08;;;;;;;0.95;100.00;91206.16;5015445;28;20029;-64
2022/04/14 03:26:38;;;;;;;5.90;3.15;;;;;;;1.07;100.00;91210.25;5015459;28;20108;-64
2022/04/14 03:29:04;;;;;;;5.95;3.70;;;;;;;1.11;100.00;91210.56;5015649;28;20022;-64
2022/04/14 03:31:29;;;;;;;9.77;3.83;;;;;;;1.12;100.00;91212.16;5015300;28;20089;-64
2022/04/14 03:33:54;;;;;;;10.73;3.90;;;;;;;1.08;100.00;91213.66;5015515;28;20026;-63
2022/04/14 03:36:20;;;;;;;5.35;3.45;;;;;;;1.33;100.00;91215.78;5015301;28;20040;-64
2022/04/14 03:38:45;;;;;;;6.00;2.97;;;;;;;1.47;100.00;91216.97;5015523;28;20021;-64
2022/04/14 03:41:10;;;;;;;6.43;3.58;;;;;;;1.47;100.00;91223.03;5015487;28;20037;-63
2022/04/14 03:43:36;;;;;;;7.10;4.47;;;;;;;1.34;100.00;91209.50;5015122;28;20082;-63
2022/04/14 03:46:03;;;;;;;15.50;6.50;;;;;;;1.12;100.00;91209.53;5015141;28;20438;-62
2022/04/14 03:48:29;;;;;;;10.90;5.93;;;;;;;0.73;100.00;91217.41;5015082;28;20565;-63
2022/04/14 03:50:55;;;;;;;7.10;4.85;;;;;;;0.49;100.00;91218.69;5015215;28;20086;-62
2022/04/14 03:53:20;;;;;;;12.23;6.13;;;;;;;0.43;100.00;91215.19;5014822;28;20479;-63
2022/04/14 03:55:48;;;;;;;10.55;5.60;;;;;;;0.45;100.00;91213.09;5015516;28;20105;-63
2022/04/14 03:58:15;;;;;;;13.35;6.43;;;;;;;0.45;100.00;91212.31;5015153;28;20480;-63
2022/04/14 04:00:41;;;;;;;13.45;5.20;;;;;;;0.47;100.00;91211.03;5015108;28;20038;-63
2022/04/14 04:03:11;;;;;;;7.82;4.57;;;;;;;0.51;100.00;91216.59;5014720;28;20026;-63
2022/04/14 04:05:37;;;;;;;7.88;5.00;;;;;;;0.55;100.00;91210.63;5014767;28;20028;-63
2022/04/14 04:08:04;;;;;;;10.90;5.20;;;;;;;0.59;100.00;91200.47;5014963;28;20080;-63
2022/04/14 04:10:29;;;;;;;6.72;3.60;;;;;;;0.58;100.00;91206.75;5014927;28;20495;-63
2022/04/14 04:12:55;;;;;;;11.20;4.57;;;;;;;0.58;100.00;91206.75;5014566;28;20169;-63
2022/04/14 04:15:20;;;;;;;14.20;5.50;;;;;;;0.83;100.00;91214.16;5014627;28;20064;-63
2022/04/14 04:17:46;;;;;;;23.42;11.02;;;;;;;1.09;100.00;91213.41;5014355;28;20086;-63
2022/04/14 04:20:12;;;;;;;27.42;12.25;;;;;;;1.19;100.00;91207.50;5014343;28;20022;-63
2022/04/14 04:22:38;;;;;;;6.07;3.92;;;;;;;1.36;100.00;91216.06;5014593;28;20506;-63
2022/04/14 04:25:04;;;;;;;7.93;5.30;;;;;;;1.53;100.00;91223.84;5014691;28;20034;-64
2022/04/14 04:27:29;;;;;;;9.82;4.97;;;;;;;1.64;100.00;91230.00;5014243;28;20030;-64
2022/04/14 04:29:55;;;;;;;10.85;5.30;;;;;;;1.76;100.00;91233.28;5014660;28;20029;-66
2022/04/14 04:32:20;;;;;;;13.10;4.78;;;;;;;2.09;100.00;91237.50;5014469;28;20038;-65
2022/04/14 04:34:46;;;;;;;16.52;5.80;;;;;;;2.44;100.00;91233.56;5014095;28;20105;-65
2022/04/14 04:37:11;;;;;;;11.65;5.88;;;;;;;2.19;100.00;91232.31;5013870;28;20557;-68
2022/04/14 04:39:37;;;;;;;11.98;5.47;;;;;;;2.32;100.00;91237.16;4996180;28;20022;-68
2022/04/14 04:42:02;;;;;;;11.27;6.95;;;;;;;2.12;100.00;91237.00;5014226;28;20483;-68
2022/04/14 04:44:28;;;;;;;9.23;4.82;;;;;;;2.27;100.00;91229.25;5014097;28;20180;-67
2022/04/14 04:46:53;;;;;;;9.25;4.95;;;;;;;2.75;100.00;91245.09;5015225;28;20068;-68
2022/04/14 04:49:19;;;;;;;9.65;4.88;;;;;;;4.51;100.00;91248.53;5013989;28;20033;-68
2022/04/14 04:51:44;;;;;;;15.00;5.35;;;;;;;6.09;97.13;91254.19;5013633;28;20022;-67
2022/04/14 04:54:10;;;;;;;9.57;5.15;;;;;;;7.88;81.22;91256.00;5013716;28;20511;-68
2022/04/14 04:56:35;;;;;;;15.15;4.68;;;;;;;9.28;69.96;91248.91;4996261;28;20026;-67
2022/04/14 04:59:01;;;;;;;14.80;5.47;;;;;;;10.25;65.06;91249.75;5013630;28;20091;-67
2022/04/14 05:01:26;;;;;;;20.92;7.45;;;;;;;10.36;61.23;91259.09;5013748;28;20384;-67
2022/04/14 05:03:51;;;;;;;11.70;5.75;;;;;;;12.05;56.78;91266.50;5013326;28;20553;-67
2022/04/14 05:06:17;;;;;;;11.93;5.22;;;;;;;13.58;51.36;91249.34;5013480;28;20455;-67
2022/04/14 05:08:42;;;;;;;13.43;4.50;;;;;;;12.79;50.65;91255.81;5013951;28;20058;-68
2022/04/14 05:11:08;;;;;;;12.93;4.88;;;;;;;13.75;48.31;91244.72;5013348;28;20022;-67
2022/04/14 05:13:34;;;;;;;12.63;5.30;;;;;;;15.06;46.11;91250.97;5013594;28;20109;-67
2022/04/14 05:16:02;;;;;;;31.48;10.65;;;;;;;15.20;44.85;91254.16;5013642;28;20022;-66
2022/04/14 05:18:27;;;;;;;15.77;4.88;;;;;;;15.37;45.21;91257.81;5013227;28;20037;-65
2022/04/14 05:20:53;;;;;;;22.17;6.03;;;;;;;15.87;44.51;91265.69;5013303;28;20026;-65
2022/04/14 05:23:18;;;;;;;12.18;5.28;;;;;;;15.49;44.10;91266.69;5013095;28;20026;-65
2022/04/14 05:25:44;;;;;;;40.70;6.95;;;;;;;16.18;42.54;91275.94;5013410;28;20033;-64
2022/04/14 05:28:09;;;;;;;16.98;5.03;;;;;;;16.73;41.30;91274.66;5013131;28;20057;-65
2022/04/14 05:30:34;;;;;;;14.13;5.57;;;;;;;16.87;40.95;91280.44;5012602;28;20495;-65
2022/04/14 05:33:00;;;;;;;16.58;6.43;;;;;;;17.32;40.28;91284.81;5012997;28;20463;-65
2022/04/14 05:35:25;;;;;;;17.73;5.70;;;;;;;17.28;40.45;91286.63;5012991;28;20033;-66
2022/04/14 05:37:52;;;;;;;10.38;5.25;;;;;;;18.09;37.99;91274.66;5013200;28;20084;-65
2022/04/14 05:40:18;;;;;;;10.20;5.78;;;;;;;19.21;36.47;91285.06;5013057;28;20033;-65
2022/04/14 05:42:46;;;;;;;11.77;5.70;;;;;;;19.60;36.55;91285.94;5012601;28;20030;-67
2022/04/14 05:45:14;;;;;;;9.13;5.30;;;;;;;19.48;36.20;91282.53;5012718;28;20074;-67
2022/04/14 05:47:40;;;;;;;14.15;7.57;;;;;;;19.97;35.28;91288.19;5012991;28;20018;-65
2022/04/14 05:50:06;;;;;;;28.05;7.03;;;;;;;20.44;34.87;91285.22;5013373;28;20490;-65
2022/04/14 05:52:31;;;;;;;34.88;7.35;;;;;;;22.35;32.95;91275.50;5012473;28;20032;-67
2022/04/14 05:55:01;;;;;;;5.40;4.05;;;;;;;21.18;33.46;91285.63;5012941;28;20030;-66
2022/04/14 05:57:28;;;;;;;25.02;5.38;;;;;;;19.83;35.35;91288.69;5012414;28;20026;-65
2022/04/14 05:59:54;;;;;;;10.98;3.80;;;;;;;22.17;32.04;91287.31;5012885;28;20478;-67
2022/04/14 06:02:19;;;;;;;12.10;3.97;;;;;;;24.02;30.24;91297.69;5012745;28;20543;-67
2022/04/14 06:04:45;;;;;;;48.08;7.00;;;;;;;24.24;29.58;91282.25;5012344;28;20034;-68
2022/04/14 06:07:10;;;;;;;7.35;3.65;;;;;;;23.63;29.70;91289.34;5012552;28;20470;-67
2022/04/14 06:09:36;;;;;;;15.07;4.07;;;;;;;23.11;30.28;91293.25;5012768;28;20044;-65
2022/04/14 06:12:01;;;;;;;6.28;3.47;;;;;;;24.38;28.73;91292.41;5012436;28;20032;-66
2022/04/14 06:14:28;;;;;;;8.52;4.55;;;;;;;24.43;28.80;91292.81;5012315;28;20069;-68
2022/04/14 06:16:53;;;;;;;19.30;5.30;;;;;;;25.56;28.47;91293.28;5012846;28;20479;-68
2022/04/14 06:19:19;;;;;;;16.58;5.38;;;;;;;25.20;27.98;91292.53;5012608;28;20036;-70
2022/04/14 06:21:45;;;;;;;48.30;6.95;;;;;;;26.27;28.33;91301.28;5012343;28;20045;-69
2022/04/14 06:24:10;;;;;;;51.53;6.97;;;;;;;24.95;28.94;91285.13;5012199;28;20034;-72
2022/04/14 06:26:36;;;;;;;20.42;4.13;;;;;;;23.66;30.20;91302.16;5012596;28;20503;-70
2022/04/14 06:29:02;;;;;;;50.95;5.20;;;;;;;23.57;29.73;91302.53;5012285;28;20172;-68
2022/04/14 06:31:27;;;;;;;9.63;3.28;;;;;;;24.28;29.07;91304.00;5012471;28;20026;-66
2022/04/14 06:33:53;;;;;;;11.35;4.20;;;;;;;23.47;30.79;91305.91;5012002;28;20030;-66
2022/04/14 06:36:18;;;;;;;14.30;4.68;;;;;;;22.47;30.11;91306.22;5012634;28;20108;-75
2022/04/14 06:38:44;;;;;;;17.92;5.88;;;;;;;19.93;32.98;91312.41;5012309;28;20030;-67
2022/04/14 06:41:09;;;;;;;25.92;7.95;;;;;;;18.31;36.07;91308.31;5012679;28;20108;-68
2022/04/14 06:43:34;;;;;;;27.45;7.88;;;;;;;20.27;34.04;91302.63;5014971;28;20045;-66
2022/04/14 06:46:03;;;;;;;22.20;6.43;;;;;;;22.04;32.82;91309.19;5016412;28;20026;-66
2022/04/14 06:48:31;;;;;;;21.52;6.85;;;;;;;21.50;32.38;91313.16;5016208;28;20091;-65
2022/04/14 06:51:00;;;;;;;15.88;6.03;;;;;;;21.52;34.28;91315.50;5016161;28;20037;-66
2022/04/14 06:53:26;;;;;;;25.98;6.63;;;;;;;19.49;34.38;91313.78;5016170;28;20025;-66
2022/04/14 06:55:53;;;;;;;38.90;8.40;;;;;;;19.26;35.40;91311.78;5016066;28;20045;-66
2022/04/14 06:58:19;;;;;;;15.35;6.00;;;;;;;21.15;33.97;91310.72;5016044;28;20487;-65
2022/04/14 07:00:45;;;;;;;15.27;5.88;;;;;;;21.13;33.87;91315.69;5015769;28;20180;-66
2022/04/14 07:03:10;;;;;;;14.05;6.72;;;;;;;22.09;33.04;91324.38;5015784;28;20559;-66
2022/04/14 07:05:36;;;;;;;20.80;6.75;;;;;;;24.27;31.37;91319.53;5015969;28;20034;-65
2022/04/14 07:08:01;;;;;;;17.35;7.05;;;;;;;24.95;29.33;91319.75;5015986;28;20022;-65
2022/04/14 07:10:27;;;;;;;16.85;6.82;;;;;;;26.03;28.49;91315.78;5015599;28;20112;-64
2022/04/14 07:12:53;;;;;;;9.00;5.28;;;;;;;26.11;28.13;91312.66;5015581;28;20022;-65
2022/04/14 07:15:19;;;;;;;18.90;6.78;;;;;;;26.40;28.32;91324.25;5015441;28;20034;-65
2022/04/14 07:17:44;;;;;;;13.23;9.05;;;;;;;27.53;27.21;91321.22;5015460;28;20081;-65
2022/04/14 07:20:10;;;;;;;19.38;7.25;;;;;;;26.63;27.97;91326.47;4997896;28;20084;-65
2022/04/14 07:22:43;;;;;;;9.82;5.50;;;;;;;25.83;27.38;91323.63;5015465;28;20118;-64
2022/04/14 07:25:09;;;;;;;20.52;6.38;;;;;;;25.42;28.83;91315.09;4997674;28;20038;-64
2022/04/14 07:27:34;;;;;;;102.70;11.35;;;;;;;25.94;27.74;91321.66;5015318;28;20499;-64
2022/04/14 07:30:00;;;;;;;7.45;5.25;;;;;;;27.97;26.57;91310.28;5015339;28;20042;-65
2022/04/14 07:32:36;;;;;;;21.98;7.35;;;;;;;24.63;28.91;91316.97;5015176;28;20025;-66
2022/04/14 07:35:03;;;;;;;10.93;6.60;;;;;;;24.12;30.56;91321.41;5015085;28;20026;-67
2022/04/14 07:37:30;;;;;;;16.55;7.78;;;;;;;21.60;31.55;91316.38;5015109;28;20542;-66
2022/04/14 07:39:55;;;;;;;10.15;6.13;;;;;;;21.97;31.88;91328.09;5015083;28;20109;-66
2022/04/14 07:42:21;;;;;;;18.00;7.10;;;;;;;23.11;31.17;91326.59;5015144;28;20480;-65
2022/04/14 07:44:46;;;;;;;22.10;7.13;;;;;;;26.04;27.92;91326.31;5014894;28;20072;-65
2022/04/14 07:47:12;;;;;;;65.82;10.55;;;;;;;25.56;29.70;91325.97;5015002;28;20057;-67
2022/04/14 07:49:37;;;;;;;17.48;7.90;;;;;;;26.28;28.45;91327.38;5014966;28;20022;-65
2022/04/14 07:52:03;;;;;;;30.63;7.53;;;;;;;24.19;30.39;91318.75;5014830;28;20113;-65
2022/04/14 07:54:28;;;;;;;9.73;5.78;;;;;;;25.15;29.96;91320.94;4996907;28;20492;-65
2022/04/14 07:56:53;;;;;;;32.53;7.25;;;;;;;26.00;29.37;91322.03;5015356;28;20104;-65
2022/04/14 07:59:19;;;;;;;10.60;5.85;;;;;;;25.62;29.92;91329.88;5014921;28;20117;-65
2022/04/14 08:01:44;;;;;;;17.88;6.13;;;;;;;25.50;29.86;91316.66;5014894;28;20048;-65
2022/04/14 08:04:11;;;;;;;21.35;6.80;;;;;;;25.94;28.45;91325.16;5014703;28;20114;-65
2022/04/14 08:06:37;;;;;;;17.08;6.47;;;;;;;25.08;30.38;91318.97;5014767;28;20076;-65
2022/04/14 08:09:06;;;;;;;12.75;6.10;;;;;;;26.41;29.28;91319.56;5014622;28;20121;-65
2022/04/14 08:11:32;;;;;;;19.73;7.20;;;;;;;27.95;26.70;91315.38;5014565;28;20428;-65
2022/04/14 08:13:57;;;;;;;17.73;6.28;;;;;;;27.88;28.11;91309.19;5014471;28;20129;-65
2022/04/14 08:16:23;;;;;;;9.25;5.57;;;;;;;27.92;26.75;91312.66;5014559;28;20033;-65
2022/04/14 08:18:48;;;;;;;16.38;8.52;;;;;;;27.55;26.49;91314.16;5014429;28;20026;-65
2022/04/14 08:21:14;;;;;;;30.90;6.82;;;;;;;25.82;28.02;91311.94;5014413;28;20431;-66
2022/04/14 08:23:39;;;;;;;10.07;4.65;;;;;;;26.48;26.81;91308.63;5014374;28;20045;-65
2022/04/14 08:26:08;;;;;;;9.55;3.90;;;;;;;25.55;27.02;91302.63;5014690;28;20029;-65
2022/04/14 08:28:35;;;;;;;9.43;3.60;;;;;;;24.86;26.53;91301.06;5014308;28;20112;-67
2022/04/14 08:31:02;;;;;;;12.95;4.07;;;;;;;26.25;27.03;91307.16;5014287;28;20022;-65
2022/04/14 08:33:28;;;;;;;10.65;5.10;;;;;;;26.32;26.34;91300.09;5014155;28;20385;-65
2022/04/14 08:35:54;;;;;;;13.82;5.85;;;;;;;26.33;26.06;91302.41;5014203;28;20040;-65
2022/04/14 08:38:21;;;;;;;36.53;6.82;;;;;;;25.71;27.34;91300.28;5014302;28;20517;-67
2022/04/14 08:40:48;;;;;;;15.32;5.53;;;;;;;25.91;27.03;91303.38;5013979;28;20034;-65
2022/04/14 08:43:17;;;;;;;14.55;6.03;;;;;;;28.10;24.77;91293.34;5014048;28;20045;-66
2022/04/14 08:45:47;;;;;;;21.20;5.82;;;;;;;27.52;25.13;91298.59;5014170;28;20033;-66
2022/04/14 08:48:14;;;;;;;108.97;11.85;;;;;;;26.78;24.76;91294.41;5014220;28;20487;-66
2022/04/14 08:50:42;;;;;;;20.95;4.65;;;;;;;26.76;25.32;91294.03;5014145;28;20053;-66
2022/04/14 08:53:08;;;;;;;37.63;6.82;;;;;;;25.85;26.63;91288.56;5014153;28;20029;-66
2022/04/14 08:55:34;;;;;;;19.65;5.20;;;;;;;25.28;27.59;91277.75;5013734;28;20030;-66
2022/04/14 08:58:00;;;;;;;8.88;4.25;;;;;;;26.77;24.71;91281.94;4996211;28;20131;-67
2022/04/14 09:00:26;;;;;;;12.60;4.85;;;;;;;27.67;25.42;91280.91;5013644;28;20025;-66
2022/04/14 09:02:54;;;;;;;35.20;5.93;;;;;;;25.58;24.76;91271.88;5013629;28;20040;-66
2022/04/14 09:05:19;;;;;;;36.85;8.15;;;;;;;24.29;26.71;91271.00;5012788;28;20499;-66
2022/04/14 09:07:52;;;;;;;10.15;4.80;;;;;;;25.88;27.00;91269.50;5013602;28;20041;-67
2022/04/14 09:10:18;;;;;;;18.17;5.17;;;;;;;25.07;26.60;91267.63;5013481;28;20033;-67
2022/04/14 09:12:44;;;;;;;24.77;5.55;;;;;;;25.37;26.47;91265.28;5000176;28;20480;-66
2022/04/14 09:15:10;;;;;;;20.63;6.05;;;;;;;26.21;25.09;91262.75;4993690;28;20030;-66
2022/04/14 09:17:36;;;;;;;25.35;4.88;;;;;;;27.21;25.28;91273.09;4993624;28;20061;-66
2022/04/14 09:20:27;;;;;;;52.92;6.28;;;;;;;28.12;24.50;91269.09;4993232;28;20161;-66
2022/04/14 09:23:13;;;;;;;8.00;4.15;;;;;;;29.57;23.73;91265.53;4993344;28;20026;-66
2022/04/14 09:25:39;;;;;;;20.73;4.05;;;;;;;27.55;24.35;91264.97;4993036;28;20042;-65
2022/04/14 09:28:23;;;;;;;10.18;3.67;;;;;;;28.66;23.74;91261.78;4993518;28;20026;-65
2022/04/14 09:31:08;;;;;;;6.72;3.13;;;;;;;27.88;22.31;91254.50;5003530;28;20121;-65
2022/04/14 09:33:36;;;;;;;14.27;3.75;;;;;;;27.58;25.07;91255.94;5012890;28;20018;-65
2022/04/14 09:36:04;;;;;;;13.50;3.53;;;;;;;27.34;23.19;91248.78;5013210;28;20197;-65
2022/04/14 09:38:58;;;;;;;8.00;3.17;;;;;;;28.89;23.18;91245.44;4994938;28;20030;-66
2022/04/14 09:41:33;;;;;;;13.48;4.00;;;;;;;27.73;25.73;91243.72;5012179;28;20033;-65
2022/04/14 09:44:01;;;;;;;12.50;3.38;;;;;;;28.00;24.22;91245.78;5012674;28;20108;-65
2022/04/14 09:46:28;;;;;;;5.82;2.83;;;;;;;27.66;24.76;91237.56;5013106;28;20076;-65
2022/04/14 09:49:05;;;;;;;4.85;3.42;;;;;;;25.61;26.74;91241.13;5012746;28;20073;-65
2022/04/14 09:51:31;;;;;;;7.90;3.22;;;;;;;25.71;25.71;91250.44;5012893;28;20488;-65
2022/04/14 09:54:12;;;;;;;23.45;4.22;;;;;;;26.70;24.99;91250.03;5012477;28;20061;-66
2022/04/14 09:56:39;;;;;;;98.65;9.00;;;;;;;24.52;28.51;91232.59;5012777;28;20021;-66
2022/04/14 09:59:08;;;;;;;7.05;3.25;;;;;;;26.44;27.08;91240.44;5012510;28;20038;-66
2022/04/14 10:01:34;;;;;;;35.65;4.85;;;;;;;27.48;25.04;91240.44;5012418;28;20052;-66
2022/04/14 10:04:01;;;;;;;3.13;2.33;;;;;;;27.82;24.22;91240.50;5012482;28;20037;-66
2022/04/14 10:06:26;;;;;;;4.68;3.15;;;;;;;28.43;25.00;91237.06;5012606;28;20036;-65
2022/04/14 10:08:52;;;;;;;8.23;3.47;;;;;;;27.68;25.13;91235.97;5012727;28;20037;-66
2022/04/14 10:11:25;;;;;;;8.48;3.53;;;;;;;27.75;25.25;91235.88;5012529;28;20030;-66
2022/04/14 10:13:50;;;;;;;;;;;;;;;28.07;25.15;91233.97;5012605;28;20029;-67
2022/04/14 10:16:20;;;;;;;29.95;4.05;;;;;;;26.97;25.38;91235.78;5012277;28;19920;-66
2022/04/14 10:18:46;;;;;;;13.25;3.13;;;;;;;28.54;25.17;91230.25;5012218;28;20030;-66
2022/04/14 10:21:14;;;;;;;196.65;17.60;;;;;;;29.73;23.83;91235.47;5012666;28;20030;-66
2022/04/14 10:23:41;;;;;;;26.35;5.13;;;;;;;30.84;22.48;91240.31;5012295;28;20400;-66
2022/04/14 10:26:07;;;;;;;16.95;3.90;;;;;;;30.13;23.68;91232.75;5012240;28;20498;-66
2022/04/14 10:28:35;;;;;;;3.88;2.80;;;;;;;27.64;23.75;91234.47;5012378;28;20435;-66
2022/04/14 10:31:01;;;;;;;6.40;2.88;;;;;;;27.10;24.14;91234.91;5012161;28;20026;-66
2022/04/14 10:33:28;;;;;;;4.25;2.88;;;;;;;28.72;24.76;91230.03;5012161;28;20057;-66
2022/04/14 10:35:53;;;;;;;3.47;2.65;;;;;;;30.97;21.79;91237.69;5012337;28;20034;-66
2022/04/14 10:38:33;;;;;;;5.88;3.50;;;;;;;27.55;23.59;91236.88;5012262;28;20451;-66
2022/04/14 10:41:03;;;;;;;4.93;3.50;;;;;;;28.79;22.99;91227.16;5012176;28;20147;-66
2022/04/14 10:43:29;;;;;;;10.20;3.22;;;;;;;27.47;24.01;91227.97;5011677;28;20492;-66
2022/04/14 10:45:59;;;;;;;4.68;3.40;;;;;;;28.76;24.12;91225.25;5011947;28;20037;-66
2022/04/14 10:48:28;;;;;;;3.20;2.78;;;;;;;29.68;21.21;91234.00;5012394;28;20068;-66
2022/04/14 10:51:28;;;;;;;6.55;2.92;;;;;;;27.37;22.88;91226.09;5012225;28;20042;-66
2022/04/14 10:54:04;;;;;;;11.55;2.97;;;;;;;27.03;23.05;91239.69;5011956;28;20045;-66
2022/04/14 10:56:50;;;;;;;6.70;3.03;;;;;;;26.70;23.17;91230.91;5011427;28;20054;-66
2022/04/14 10:59:42;;;;;;;10.00;2.47;;;;;;;28.48;22.11;91233.88;5012204;28;20184;-67
2022/04/14 11:02:07;;;;;;;65.97;6.88;;;;;;;28.63;23.79;91227.00;5011719;28;20503;-67
2022/04/14 11:04:46;;;;;;;5.80;3.20;;;;;;;28.12;23.62;91234.31;5011900;28;20041;-67
2022/04/14 11:07:12;;;;;;;2.97;2.67;;;;;;;25.89;25.07;91227.44;5012000;28;20044;-67
2022/04/14 11:09:38;;;;;;;5.47;2.85;;;;;;;26.51;23.26;91237.69;5012054;28;20034;-66
2022/04/14 11:12:05;;;;;;;7.15;2.72;;;;;;;25.60;25.03;91234.91;5011885;28;20044;-68
2022/04/14 11:14:38;;;;;;;9.13;3.03;;;;;;;26.49;24.96;91234.53;5012024;28;20159;-66
2022/04/14 11:17:04;;;;;;;3.03;2.50;;;;;;;26.96;25.22;91226.81;5011895;28;20034;-66
2022/04/14 11:19:30;;;;;;;38.00;5.03;;;;;;;27.28;24.33;91220.31;5011857;28;20594;-66
2022/04/14 11:22:01;;;;;;;26.85;4.63;;;;;;;26.06;24.87;91227.75;5011714;28;20116;-66
2022/04/14 11:24:53;;;;;;;18.42;4.30;;;;;;;26.98;25.71;91220.94;5012363;28;20430;-66
2022/04/14 11:27:30;;;;;;;17.33;8.50;;;;;;;27.26;24.81;91219.97;5007427;28;20037;-66
2022/04/14 11:30:00;;;;;;;15.02;4.20;;;;;;;24.42;25.58;91222.47;5014722;28;20037;-65